sensor_id;sensor_type;location;lat;lon;timestamp;pressure;altitude;pressure_sealevel;temperature;humidity
74125;BME280;62475;52.192;5.396;2022-12-05T00:01:19;101913.53;;;3.19;100.00
74125;BME280;62475;52.192;5.396;2022-12-05T00:03:47;101909.75;;;3.20;100.00
74125;BME280;62475;52.192;5.396;2022-12-05T00:06:13;101920.16;;;3.23;100.00
74125;BME280;62475;52.192;5.396;2022-12-05T00:08:38;101910.38;;;3.22;100.00
74125;BME280;62475;52.192;5.396;2022-12-05T00:11:10;101915.34;;;3.25;100.00
74125;BME280;62475;52.192;5.396;2022-12-05T00:13:36;101909.91;;;3.25;100.00
74125;BME280;62475;52.192;5.396;2022-12-05T00:16:06;101907.19;;;3.25;100.00
74125;BME280;62475;52.192;5.396;2022-12-05T00:18:32;101912.63;;;3.25;100.00
74125;BME280;62475;52.192;5.396;2022-12-05T00:20:58;101910.75;;;3.26;100.00
74125;BME280;62475;52.192;5.396;2022-12-05T00:23:23;101905.09;;;3.27;100.00
74125;BME280;62475;52.192;5.396;2022-12-05T00:25:48;101913.06;;;3.22;100.00
74125;BME280;62475;52.192;5.396;2022-12-05T00:28:13;101909.69;;;3.27;100.00
74125;BME280;62475;52.192;5.396;2022-12-05T00:30:39;101903.66;;;3.25;100.00
74125;BME280;62475;52.192;5.396;2022-12-05T00:33:05;101897.84;;;3.21;100.00
74125;BME280;62475;52.192;5.396;2022-12-05T00:35:32;101898.66;;;3.22;100.00
74125;BME280;62475;52.192;5.396;2022-12-05T00:37:58;101905.31;;;3.26;100.00
74125;BME280;62475;52.192;5.396;2022-12-05T00:40:23;101917.41;;;3.30;100.00
74125;BME280;62475;52.192;5.396;2022-12-05T00:42:48;101910.94;;;3.31;100.00
74125;BME280;62475;52.192;5.396;2022-12-05T00:45:14;101913.41;;;3.32;100.00
74125;BME280;62475;52.192;5.396;2022-12-05T00:47:39;101912.38;;;3.33;100.00
74125;BME280;62475;52.192;5.396;2022-12-05T00:50:05;101894.69;;;3.24;100.00
74125;BME280;62475;52.192;5.396;2022-12-05T00:52:30;101907.53;;;3.35;100.00
74125;BME280;62475;52.192;5.396;2022-12-05T00:54:56;101893.47;;;3.20;100.00
74125;BME280;62475;52.192;5.396;2022-12-05T00:57:21;101917.81;;;3.33;100.00
74125;BME280;62475;52.192;5.396;2022-12-05T00:59:46;101912.38;;;3.33;100.00
74125;BME280;62475;52.192;5.396;2022-12-05T01:02:12;101907.19;;;3.25;100.00
74125;BME280;62475;52.192;5.396;2022-12-05T01:04:37;101913.88;;;3.29;100.00
74125;BME280;62475;52.192;5.396;2022-12-05T01:07:02;101892.06;;;3.11;100.00
74125;BME280;62475;52.192;5.396;2022-12-05T01:09:28;101914.50;;;3.25;100.00
74125;BME280;62475;52.192;5.396;2022-12-05T01:11:53;101910.13;;;3.24;100.00
74125;BME280;62475;52.192;5.396;2022-12-05T01:14:21;101898.09;;;3.13;100.00
74125;BME280;62475;52.192;5.396;2022-12-05T01:16:48;101914.94;;;3.22;100.00
74125;BME280;62475;52.192;5.396;2022-12-05T01:19:20;101896.63;;;3.17;100.00
74125;BME280;62475;52.192;5.396;2022-12-05T01:21:47;101907.25;;;3.19;100.00
74125;BME280;62475;52.192;5.396;2022-12-05T01:24:13;101910.03;;;3.12;100.00
74125;BME280;62475;52.192;5.396;2022-12-05T01:26:40;101909.56;;;3.15;100.00
74125;BME280;62475;52.192;5.396;2022-12-05T01:29:06;101910.84;;;3.13;100.00
74125;BME280;62475;52.192;5.396;2022-12-05T01:31:34;101833.72;;;2.65;100.00
74125;BME280;62475;52.192;5.396;2022-12-05T01:34:02;101915.84;;;3.16;100.00
74125;BME280;62475;52.192;5.396;2022-12-05T01:36:28;101921.50;;;3.14;100.00
74125;BME280;62475;52.192;5.396;2022-12-05T01:38:55;101916.09;;;3.08;100.00
74125;BME280;62475;52.192;5.396;2022-12-05T01:41:23;101926.69;;;3.16;100.00
74125;BME280;62475;52.192;5.396;2022-12-05T01:46:36;101924.78;;;3.16;100.00
74125;BME280;62475;52.192;5.396;2022-12-05T01:49:06;101905.44;;;3.06;100.00
74125;BME280;62475;52.192;5.396;2022-12-05T01:51:33;101926.31;;;3.12;100.00
74125;BME280;62475;52.192;5.396;2022-12-05T01:54:01;101923.59;;;3.12;100.00
74125;BME280;62475;52.192;5.396;2022-12-05T01:56:27;101923.81;;;3.11;100.00
74125;BME280;62475;52.192;5.396;2022-12-05T01:58:54;101920.03;;;3.12;100.00
74125;BME280;62475;52.192;5.396;2022-12-05T02:01:20;101916.25;;;3.13;100.00
74125;BME280;62475;52.192;5.396;2022-12-05T02:03:47;101902.97;;;3.05;100.00
74125;BME280;62475;52.192;5.396;2022-12-05T02:06:14;101912.97;;;3.11;100.00
74125;BME280;62475;52.192;5.396;2022-12-05T02:08:40;101915.00;;;3.15;100.00
74125;BME280;62475;52.192;5.396;2022-12-05T02:11:07;101897.09;;;3.08;100.00
74125;BME280;62475;52.192;5.396;2022-12-05T02:19:04;101886.22;;;3.08;100.00
74125;BME280;62475;52.192;5.396;2022-12-05T02:30:21;101909.06;;;3.25;100.00
74125;BME280;62475;52.192;5.396;2022-12-05T02:33:09;101911.16;;;3.29;100.00
74125;BME280;62475;52.192;5.396;2022-12-05T02:38:28;101907.38;;;3.30;100.00
74125;BME280;62475;52.192;5.396;2022-12-05T02:41:23;101897.00;;;3.21;100.00
74125;BME280;62475;52.192;5.396;2022-12-05T02:43:59;101903.44;;;3.26;100.00
74125;BME280;62475;52.192;5.396;2022-12-05T02:46:28;101905.31;;;3.26;100.00
74125;BME280;62475;52.192;5.396;2022-12-05T02:48:58;101912.63;;;3.25;100.00
74125;BME280;62475;52.192;5.396;2022-12-05T02:51:28;101908.28;;;3.24;100.00
74125;BME280;62475;52.192;5.396;2022-12-05T02:53:58;101907.81;;;3.27;100.00
74125;BME280;62475;52.192;5.396;2022-12-05T02:56:26;101910.53;;;3.27;100.00
74125;BME280;62475;52.192;5.396;2022-12-05T02:58:53;101903.06;;;3.23;100.00
74125;BME280;62475;52.192;5.396;2022-12-05T03:01:23;101882.44;;;3.15;100.00
74125;BME280;62475;52.192;5.396;2022-12-05T03:03:49;101910.94;;;3.31;100.00
74125;BME280;62475;52.192;5.396;2022-12-05T03:06:19;101899.28;;;3.24;100.00
74125;BME280;62475;52.192;5.396;2022-12-05T03:08:58;101897.41;;;3.24;100.00
74125;BME280;62475;52.192;5.396;2022-12-05T03:11:27;101906.13;;;3.33;100.00
74125;BME280;62475;52.192;5.396;2022-12-05T03:13:57;101916.31;;;3.37;100.00
74125;BME280;62475;52.192;5.396;2022-12-05T03:16:43;101916.31;;;3.37;100.00
74125;BME280;62475;52.192;5.396;2022-12-05T03:19:14;101882.81;;;3.19;100.00
74125;BME280;62475;52.192;5.396;2022-12-05T03:21:48;101911.25;;;3.41;100.00
74125;BME280;62475;52.192;5.396;2022-12-05T03:24:14;101906.28;;;3.38;100.00
74125;BME280;62475;52.192;5.396;2022-12-05T03:27:02;101912.72;;;3.43;100.00
74125;BME280;62475;52.192;5.396;2022-12-05T03:32:36;101900.47;;;3.34;100.00
74125;BME280;62475;52.192;5.396;2022-12-05T03:35:41;101919.34;;;3.47;100.00
74125;BME280;62475;52.192;5.396;2022-12-05T03:38:19;101926.47;;;3.48;100.00
74125;BME280;62475;52.192;5.396;2022-12-05T03:40:52;101910.22;;;3.42;100.00
74125;BME280;62475;52.192;5.396;2022-12-05T03:43:28;101925.16;;;3.51;100.00
74125;BME280;62475;52.192;5.396;2022-12-05T03:46:08;101929.34;;;3.54;100.00
74125;BME280;62475;52.192;5.396;2022-12-05T03:51:21;101916.06;;;3.45;100.00
74125;BME280;62475;52.192;5.396;2022-12-05T03:54:03;101924.59;;;3.49;100.00
74125;BME280;62475;52.192;5.396;2022-12-05T03:56:34;101935.38;;;3.56;100.00
74125;BME280;62475;52.192;5.396;2022-12-05T04:01:52;101934.31;;;3.57;100.00
74125;BME280;62475;52.192;5.396;2022-12-05T04:04:43;101936.41;;;3.61;100.00
74125;BME280;62475;52.192;5.396;2022-12-05T04:07:12;101942.44;;;3.63;100.00
74125;BME280;62475;52.192;5.396;2022-12-05T04:10:09;101941.16;;;3.66;100.00
74125;BME280;62475;52.192;5.396;2022-12-05T04:12:38;101934.28;;;3.63;100.00
74125;BME280;62475;52.192;5.396;2022-12-05T04:15:10;101937.38;;;3.67;100.00
74125;BME280;62475;52.192;5.396;2022-12-05T04:17:50;101942.59;;;3.68;100.00
74125;BME280;62475;52.192;5.396;2022-12-05T04:20:33;101940.28;;;3.72;100.00
74125;BME280;62475;52.192;5.396;2022-12-05T04:23:19;101940.06;;;3.73;100.00
74125;BME280;62475;52.192;5.396;2022-12-05T04:28:46;101946.25;;;3.80;100.00
74125;BME280;62475;52.192;5.396;2022-12-05T04:31:17;101943.31;;;3.82;100.00
74125;BME280;62475;52.192;5.396;2022-12-05T04:33:54;101944.53;;;3.86;100.00
74125;BME280;62475;52.192;5.396;2022-12-05T04:36:33;101939.91;;;3.86;100.00
74125;BME280;62475;52.192;5.396;2022-12-05T04:39:07;101939.69;;;3.88;100.00
74125;BME280;62475;52.192;5.396;2022-12-05T04:41:42;101929.66;;;3.88;100.00
74125;BME280;62475;52.192;5.396;2022-12-05T04:44:12;101934.03;;;3.89;100.00
74125;BME280;62475;52.192;5.396;2022-12-05T04:46:42;101932.00;;;3.85;100.00
74125;BME280;62475;52.192;5.396;2022-12-05T04:49:10;101937.34;;;3.91;100.00
74125;BME280;62475;52.192;5.396;2022-12-05T04:51:38;101940.69;;;3.93;100.00
74125;BME280;62475;52.192;5.396;2022-12-05T04:54:13;101941.53;;;3.94;100.00
74125;BME280;62475;52.192;5.396;2022-12-05T04:56:43;101918.03;;;3.81;100.00
74125;BME280;62475;52.192;5.396;2022-12-05T04:59:10;101932.31;;;3.95;100.00
74125;BME280;62475;52.192;5.396;2022-12-05T05:01:50;101934.00;;;3.96;100.00
74125;BME280;62475;52.192;5.396;2022-12-05T05:04:41;101932.09;;;3.96;100.00
74125;BME280;62475;52.192;5.396;2022-12-05T05:07:10;101934.59;;;3.98;100.00
74125;BME280;62475;52.192;5.396;2022-12-05T05:09:45;101922.13;;;3.90;100.00
74125;BME280;62475;52.192;5.396;2022-12-05T05:12:11;101914.66;;;3.86;100.00
74125;BME280;62475;52.192;5.396;2022-12-05T05:14:36;101929.38;;;3.96;100.00
74125;BME280;62475;52.192;5.396;2022-12-05T05:17:02;101941.47;;;4.00;100.00
74125;BME280;62475;52.192;5.396;2022-12-05T05:19:28;101935.78;;;4.02;100.00
74125;BME280;62475;52.192;5.396;2022-12-05T05:21:53;101940.81;;;4.05;100.00
74125;BME280;62475;52.192;5.396;2022-12-05T05:24:19;101933.22;;;4.07;100.00
74125;BME280;62475;52.192;5.396;2022-12-05T05:26:46;101938.50;;;4.02;100.00
74125;BME280;62475;52.192;5.396;2022-12-05T05:29:12;101940.13;;;4.09;100.00
74125;BME280;62475;52.192;5.396;2022-12-05T05:31:38;101927.03;;;4.00;100.00
74125;BME280;62475;52.192;5.396;2022-12-05T05:34:04;101942.38;;;4.12;100.00
74125;BME280;62475;52.192;5.396;2022-12-05T05:36:29;101949.50;;;4.13;100.00
74125;BME280;62475;52.192;5.396;2022-12-05T05:38:57;101943.84;;;4.15;100.00
74125;BME280;62475;52.192;5.396;2022-12-05T05:41:25;101941.94;;;4.15;100.00
74125;BME280;62475;52.192;5.396;2022-12-05T05:43:52;101949.88;;;4.17;100.00
74125;BME280;62475;52.192;5.396;2022-12-05T05:46:20;101949.44;;;4.20;100.00
74125;BME280;62475;52.192;5.396;2022-12-05T05:48:46;101943.16;;;4.19;100.00
74125;BME280;62475;52.192;5.396;2022-12-05T05:51:13;101946.25;;;4.23;100.00
74125;BME280;62475;52.192;5.396;2022-12-05T05:53:38;101935.97;;;4.25;100.00
74125;BME280;62475;52.192;5.396;2022-12-05T05:56:06;101939.31;;;4.27;100.00
74125;BME280;62475;52.192;5.396;2022-12-05T05:58:33;101939.91;;;4.29;100.00
74125;BME280;62475;52.192;5.396;2022-12-05T06:01:25;101945.13;;;4.30;100.00
74125;BME280;62475;52.192;5.396;2022-12-05T06:03:50;101934.47;;;4.29;100.00
74125;BME280;62475;52.192;5.396;2022-12-05T06:06:16;101933.25;;;4.25;100.00
74125;BME280;62475;52.192;5.396;2022-12-05T06:08:42;101947.38;;;4.33;100.00
74125;BME280;62475;52.192;5.396;2022-12-05T06:11:13;101923.00;;;4.27;100.00
74125;BME280;62475;52.192;5.396;2022-12-05T06:13:39;101935.00;;;4.37;100.00
74125;BME280;62475;52.192;5.396;2022-12-05T06:16:06;101930.84;;;4.35;100.00
74125;BME280;62475;52.192;5.396;2022-12-05T06:18:33;101945.66;;;4.39;100.00
74125;BME280;62475;52.192;5.396;2022-12-05T06:20:58;101940.59;;;4.42;100.00
74125;BME280;62475;52.192;5.396;2022-12-05T06:23:24;101939.75;;;4.42;100.00
74125;BME280;62475;52.192;5.396;2022-12-05T06:25:52;101942.03;;;4.45;100.00
74125;BME280;62475;52.192;5.396;2022-12-05T06:28:18;101941.22;;;4.44;100.00
74125;BME280;62475;52.192;5.396;2022-12-05T06:30:46;101942.63;;;4.47;100.00
74125;BME280;62475;52.192;5.396;2022-12-05T06:33:12;101867.22;;;4.00;100.00
74125;BME280;62475;52.192;5.396;2022-12-05T06:35:37;101945.13;;;4.48;100.00
74125;BME280;62475;52.192;5.396;2022-12-05T06:38:03;101934.47;;;4.47;100.00
74125;BME280;62475;52.192;5.396;2022-12-05T06:40:28;101944.69;;;4.51;100.00
74125;BME280;62475;52.192;5.396;2022-12-05T06:42:54;101936.38;;;4.46;100.00
74125;BME280;62475;52.192;5.396;2022-12-05T06:45:19;101950.13;;;4.51;100.00
74125;BME280;62475;52.192;5.396;2022-12-05T06:47:46;101938.25;;;4.46;100.00
74125;BME280;62475;52.192;5.396;2022-12-05T06:50:11;101938.50;;;4.44;100.00
74125;BME280;62475;52.192;5.396;2022-12-05T06:52:37;101942.25;;;4.43;100.00
74125;BME280;62475;52.192;5.396;2022-12-05T06:55:02;101952.63;;;4.53;100.00
74125;BME280;62475;52.192;5.396;2022-12-05T06:57:28;101936.38;;;4.46;100.00
74125;BME280;62475;52.192;5.396;2022-12-05T06:59:53;101948.22;;;4.52;100.00
74125;BME280;62475;52.192;5.396;2022-12-05T07:02:39;101947.19;;;4.53;100.00
74125;BME280;62475;52.192;5.396;2022-12-05T07:05:06;101950.50;;;4.55;100.00
74125;BME280;62475;52.192;5.396;2022-12-05T07:07:31;101955.25;;;4.59;100.00
74125;BME280;62475;52.192;5.396;2022-12-05T07:09:57;101945.50;;;4.52;100.00
74125;BME280;62475;52.192;5.396;2022-12-05T07:12:22;101959.84;;;4.59;100.00
74125;BME280;62475;52.192;5.396;2022-12-05T07:14:47;101969.69;;;4.60;100.00
74125;BME280;62475;52.192;5.396;2022-12-05T07:17:13;101952.75;;;4.58;100.00
74125;BME280;62475;52.192;5.396;2022-12-05T07:19:38;101961.53;;;4.60;100.00
74125;BME280;62475;52.192;5.396;2022-12-05T07:22:04;101958.44;;;4.56;100.00
74125;BME280;62475;52.192;5.396;2022-12-05T07:24:29;101966.38;;;4.58;100.00
74125;BME280;62475;52.192;5.396;2022-12-05T07:26:55;101965.53;;;4.57;100.00
74125;BME280;62475;52.192;5.396;2022-12-05T07:29:21;101974.22;;;4.66;100.00
74125;BME280;62475;52.192;5.396;2022-12-05T07:31:46;101970.44;;;4.67;100.00
74125;BME280;62475;52.192;5.396;2022-12-05T07:34:11;101987.38;;;4.69;100.00
74125;BME280;62475;52.192;5.396;2022-12-05T07:36:37;101976.13;;;4.66;100.00
74125;BME280;62475;52.192;5.396;2022-12-05T07:39:02;101990.91;;;4.70;100.00
74125;BME280;62475;52.192;5.396;2022-12-05T07:41:30;101981.47;;;4.72;100.00
74125;BME280;62475;52.192;5.396;2022-12-05T07:43:57;101994.84;;;4.74;100.00
74125;BME280;62475;52.192;5.396;2022-12-05T07:46:23;101993.78;;;4.75;100.00
74125;BME280;62475;52.192;5.396;2022-12-05T07:48:50;101994.63;;;4.75;100.00
74125;BME280;62475;52.192;5.396;2022-12-05T07:51:16;101986.22;;;4.77;100.00
74125;BME280;62475;52.192;5.396;2022-12-05T07:53:42;101990.84;;;4.76;100.00
74125;BME280;62475;52.192;5.396;2022-12-05T07:56:10;101985.84;;;4.73;100.00
74125;BME280;62475;52.192;5.396;2022-12-05T07:58:39;101992.75;;;4.76;100.00
74125;BME280;62475;52.192;5.396;2022-12-05T08:01:19;101993.34;;;4.78;100.00
74125;BME280;62475;52.192;5.396;2022-12-05T08:03:46;102002.09;;;4.80;100.00
74125;BME280;62475;52.192;5.396;2022-12-05T08:06:14;102002.94;;;4.80;100.00
74125;BME280;62475;52.192;5.396;2022-12-05T08:08:40;101998.81;;;4.78;100.00
74125;BME280;62475;52.192;5.396;2022-12-05T08:11:10;101995.84;;;4.79;100.00
74125;BME280;62475;52.192;5.396;2022-12-05T08:13:36;101996.44;;;4.81;100.00
74125;BME280;62475;52.192;5.396;2022-12-05T08:16:03;102006.28;;;4.82;100.00
74125;BME280;62475;52.192;5.396;2022-12-05T08:18:29;101999.97;;;4.82;100.00
74125;BME280;62475;52.192;5.396;2022-12-05T08:20:55;102004.81;;;4.80;100.00
74125;BME280;62475;52.192;5.396;2022-12-05T08:23:27;102006.28;;;4.82;100.00
74125;BME280;62475;52.192;5.396;2022-12-05T08:25:52;102015.88;;;4.85;100.00
74125;BME280;62475;52.192;5.396;2022-12-05T08:28:19;102010.44;;;4.85;100.00
74125;BME280;62475;52.192;5.396;2022-12-05T08:30:44;102010.22;;;4.86;100.00
74125;BME280;62475;52.192;5.396;2022-12-05T08:33:09;102007.34;;;4.81;100.00
74125;BME280;62475;52.192;5.396;2022-12-05T08:35:38;101999.38;;;4.80;100.00
74125;BME280;62475;52.192;5.396;2022-12-05T08:38:03;102010.81;;;4.88;100.00
74125;BME280;62475;52.192;5.396;2022-12-05T08:40:28;102006.88;;;4.84;100.00
74125;BME280;62475;52.192;5.396;2022-12-05T08:42:55;102011.63;;;4.89;100.00
74125;BME280;62475;52.192;5.396;2022-12-05T08:45:20;102019.94;;;4.94;100.00
74125;BME280;62475;52.192;5.396;2022-12-05T08:47:45;102022.66;;;4.94;100.00
74125;BME280;62475;52.192;5.396;2022-12-05T08:50:11;102004.75;;;4.86;100.00
74125;BME280;62475;52.192;5.396;2022-12-05T08:52:36;102016.97;;;4.95;100.00
74125;BME280;62475;52.192;5.396;2022-12-05T08:55:01;102029.09;;;4.99;100.00
74125;BME280;62475;52.192;5.396;2022-12-05T08:57:27;101997.63;;;4.85;100.00
74125;BME280;62475;52.192;5.396;2022-12-05T08:59:52;102030.53;;;5.02;100.00
74125;BME280;62475;52.192;5.396;2022-12-05T09:02:17;102021.53;;;5.01;100.00
74125;BME280;62475;52.192;5.396;2022-12-05T09:04:43;102025.47;;;5.05;100.00
74125;BME280;62475;52.192;5.396;2022-12-05T09:07:08;102027.13;;;5.06;100.00
74125;BME280;62475;52.192;5.396;2022-12-05T09:09:33;102030.69;;;5.07;100.00
74125;BME280;62475;52.192;5.396;2022-12-05T09:11:59;102041.56;;;5.07;100.00
74125;BME280;62475;52.192;5.396;2022-12-05T09:14:25;102022.22;;;4.97;100.00
74125;BME280;62475;52.192;5.396;2022-12-05T09:16:56;102039.47;;;5.09;100.00
74125;BME280;62475;52.192;5.396;2022-12-05T09:19:22;102039.00;;;5.12;100.00
74125;BME280;62475;52.192;5.396;2022-12-05T09:21:50;102026.66;;;5.09;100.00
74125;BME280;62475;52.192;5.396;2022-12-05T09:24:15;102036.88;;;5.14;100.00
74125;BME280;62475;52.192;5.396;2022-12-05T09:26:41;102037.09;;;5.12;100.00
74125;BME280;62475;52.192;5.396;2022-12-05T09:29:09;102030.44;;;5.08;100.00
74125;BME280;62475;52.192;5.396;2022-12-05T09:31:34;102045.41;;;5.17;100.00
74125;BME280;62475;52.192;5.396;2022-12-05T09:34:01;102015.47;;;4.99;100.00
74125;BME280;62475;52.192;5.396;2022-12-05T09:36:28;102055.25;;;5.18;100.00
74125;BME280;62475;52.192;5.396;2022-12-05T09:38:58;102059.84;;;5.18;100.00
74125;BME280;62475;52.192;5.396;2022-12-05T09:41:43;102058.19;;;5.17;100.00
74125;BME280;62475;52.192;5.396;2022-12-05T09:47:22;102062.38;;;5.19;100.00
74125;BME280;62475;52.192;5.396;2022-12-05T09:50:19;102056.91;;;5.19;100.00
74125;BME280;62475;52.192;5.396;2022-12-05T09:58:25;102063.19;;;5.20;100.00
74125;BME280;62475;52.192;5.396;2022-12-05T10:01:03;102069.00;;;5.23;100.00
74125;BME280;62475;52.192;5.396;2022-12-05T10:06:24;102032.09;;;5.09;100.00
74125;BME280;62475;52.192;5.396;2022-12-05T10:09:04;102056.00;;;5.25;100.00
74125;BME280;62475;52.192;5.396;2022-12-05T10:14:44;102060.38;;;5.26;100.00
74125;BME280;62475;52.192;5.396;2022-12-05T10:17:32;102060.75;;;5.30;100.00
74125;BME280;62475;52.192;5.396;2022-12-05T10:20:02;102056.81;;;5.26;100.00
74125;BME280;62475;52.192;5.396;2022-12-05T10:25:09;102056.72;;;5.32;100.00
74125;BME280;62475;52.192;5.396;2022-12-05T10:27:40;102057.34;;;5.34;100.00
74125;BME280;62475;52.192;5.396;2022-12-05T10:30:11;102053.31;;;5.37;100.00
74125;BME280;62475;52.192;5.396;2022-12-05T10:32:41;102053.16;;;5.32;100.00
74125;BME280;62475;52.192;5.396;2022-12-05T10:35:34;102046.22;;;5.36;100.00
74125;BME280;62475;52.192;5.396;2022-12-05T10:38:08;102047.06;;;5.36;100.00
74125;BME280;62475;52.192;5.396;2022-12-05T10:40:42;102050.06;;;5.28;100.00
74125;BME280;62475;52.192;5.396;2022-12-05T10:43:12;102049.16;;;5.34;100.00
74125;BME280;62475;52.192;5.396;2022-12-05T10:45:42;102052.38;;;5.31;100.00
74125;BME280;62475;52.192;5.396;2022-12-05T10:48:08;101970.97;;;4.76;100.00
74125;BME280;62475;52.192;5.396;2022-12-05T10:50:36;102046.97;;;5.25;100.00
74125;BME280;62475;52.192;5.396;2022-12-05T10:53:04;102045.56;;;5.22;100.00
74125;BME280;62475;52.192;5.396;2022-12-05T10:55:42;102038.66;;;5.20;100.00
74125;BME280;62475;52.192;5.396;2022-12-05T10:58:16;102041.31;;;5.26;100.00
74125;BME280;62475;52.192;5.396;2022-12-05T11:00:45;102048.19;;;5.29;100.00
74125;BME280;62475;52.192;5.396;2022-12-05T11:03:31;102044.19;;;5.31;100.00
74125;BME280;62475;52.192;5.396;2022-12-05T11:06:14;102037.66;;;5.32;100.00
74125;BME280;62475;52.192;5.396;2022-12-05T11:08:40;102031.63;;;5.30;100.00
74125;BME280;62475;52.192;5.396;2022-12-05T11:11:23;102041.97;;;5.40;100.00
74125;BME280;62475;52.192;5.396;2022-12-05T11:14:01;102034.59;;;5.40;100.00
74125;BME280;62475;52.192;5.396;2022-12-05T11:16:37;102035.44;;;5.41;100.00
74125;BME280;62475;52.192;5.396;2022-12-05T11:21:48;102040.53;;;5.37;100.00
74125;BME280;62475;52.192;5.396;2022-12-05T11:26:51;102029.34;;;5.27;100.00
74125;BME280;62475;52.192;5.396;2022-12-05T11:29:36;102035.53;;;5.34;100.00
74125;BME280;62475;52.192;5.396;2022-12-05T11:32:04;102036.63;;;5.33;100.00
74125;BME280;62475;52.192;5.396;2022-12-05T11:34:36;102043.47;;;5.36;100.00
74125;BME280;62475;52.192;5.396;2022-12-05T11:37:13;102031.00;;;5.28;100.00
74125;BME280;62475;52.192;5.396;2022-12-05T11:39:42;102045.38;;;5.35;100.00
74125;BME280;62475;52.192;5.396;2022-12-05T11:45:01;102042.50;;;5.30;100.00
74125;BME280;62475;52.192;5.396;2022-12-05T11:47:44;102045.84;;;5.32;100.00
74125;BME280;62475;52.192;5.396;2022-12-05T11:50:59;102040.38;;;5.32;100.00
74125;BME280;62475;52.192;5.396;2022-12-05T11:56:11;102040.47;;;5.26;100.00
74125;BME280;62475;52.192;5.396;2022-12-05T11:59:11;102025.88;;;5.20;100.00
74125;BME280;62475;52.192;5.396;2022-12-05T12:07:23;102048.88;;;5.24;100.00
74125;BME280;62475;52.192;5.396;2022-12-05T12:17:33;102025.88;;;5.20;100.00
74125;BME280;62475;52.192;5.396;2022-12-05T12:20:16;102041.31;;;5.26;100.00
74125;BME280;62475;52.192;5.396;2022-12-05T12:23:08;102021.94;;;5.16;100.00
74125;BME280;62475;52.192;5.396;2022-12-05T12:28:29;102033.53;;;5.30;100.00
74125;BME280;62475;52.192;5.396;2022-12-05T12:36:32;102030.19;;;5.28;100.00
74125;BME280;62475;52.192;5.396;2022-12-05T12:41:47;102027.91;;;5.25;100.00
74125;BME280;62475;52.192;5.396;2022-12-05T12:44:49;102029.81;;;5.24;100.00
74125;BME280;62475;52.192;5.396;2022-12-05T12:53:02;102012.22;;;5.09;100.00
74125;BME280;62475;52.192;5.396;2022-12-05T12:55:37;102024.91;;;5.15;100.00
74125;BME280;62475;52.192;5.396;2022-12-05T13:01:08;101996.69;;;5.09;100.00
74125;BME280;62475;52.192;5.396;2022-12-05T13:03:51;101999.94;;;5.18;100.00
74125;BME280;62475;52.192;5.396;2022-12-05T13:06:29;102004.19;;;5.14;100.00
74125;BME280;62475;52.192;5.396;2022-12-05T13:09:01;101990.69;;;5.07;100.00
74125;BME280;62475;52.192;5.396;2022-12-05T13:11:32;102012.75;;;5.17;100.00
74125;BME280;62475;52.192;5.396;2022-12-05T13:14:00;102010.25;;;5.16;100.00
74125;BME280;62475;52.192;5.396;2022-12-05T13:16:31;102004.94;;;5.21;100.00
74125;BME280;62475;52.192;5.396;2022-12-05T13:18:57;102008.34;;;5.16;100.00
74125;BME280;62475;52.192;5.396;2022-12-05T13:21:24;102003.34;;;5.13;100.00
74125;BME280;62475;52.192;5.396;2022-12-05T13:23:53;101989.47;;;5.03;100.00
74125;BME280;62475;52.192;5.396;2022-12-05T13:26:28;102014.38;;;5.18;100.00
74125;BME280;62475;52.192;5.396;2022-12-05T13:29:02;102008.94;;;5.18;100.00
74125;BME280;62475;52.192;5.396;2022-12-05T13:31:35;102012.97;;;5.16;100.00
74125;BME280;62475;52.192;5.396;2022-12-05T13:34:01;102019.22;;;5.16;100.00
74125;BME280;62475;52.192;5.396;2022-12-05T13:36:26;102005.25;;;5.13;100.00
74125;BME280;62475;52.192;5.396;2022-12-05T13:41:58;102010.91;;;5.11;100.00
74125;BME280;62475;52.192;5.396;2022-12-05T13:44:42;102025.28;;;5.18;100.00
74125;BME280;62475;52.192;5.396;2022-12-05T13:47:23;102029.69;;;5.19;100.00
74125;BME280;62475;52.192;5.396;2022-12-05T13:52:31;102022.28;;;5.08;100.00
74125;BME280;62475;52.192;5.396;2022-12-05T13:55:08;102020.16;;;5.10;100.00
74125;BME280;62475;52.192;5.396;2022-12-05T14:07:54;102023.94;;;5.09;100.00
74125;BME280;62475;52.192;5.396;2022-12-05T14:15:42;102019.09;;;5.11;100.00
74125;BME280;62475;52.192;5.396;2022-12-05T14:18:13;102019.31;;;5.10;100.00
74125;BME280;62475;52.192;5.396;2022-12-05T14:21:05;102023.50;;;5.12;100.00
74125;BME280;62475;52.192;5.396;2022-12-05T14:23:49;102020.53;;;5.14;100.00
74125;BME280;62475;52.192;5.396;2022-12-05T14:29:37;102004.66;;;5.11;100.00
74125;BME280;62475;52.192;5.396;2022-12-05T14:32:23;102025.50;;;5.17;100.00
74125;BME280;62475;52.192;5.396;2022-12-05T14:37:35;102013.22;;;5.14;100.00
74125;BME280;62475;52.192;5.396;2022-12-05T14:40:17;102025.50;;;5.17;100.00
74125;BME280;62475;52.192;5.396;2022-12-05T14:43:06;102027.63;;;5.15;100.00
74125;BME280;62475;52.192;5.396;2022-12-05T14:45:52;102038.28;;;5.16;100.00
74125;BME280;62475;52.192;5.396;2022-12-05T14:48:40;102024.91;;;5.15;100.00
74125;BME280;62475;52.192;5.396;2022-12-05T14:54:05;102027.25;;;5.11;100.00
74125;BME280;62475;52.192;5.396;2022-12-05T14:56:33;102025.59;;;5.10;100.00
74125;BME280;62475;52.192;5.396;2022-12-05T14:59:23;102029.75;;;5.13;100.00
74125;BME280;62475;52.192;5.396;2022-12-05T15:01:57;102030.34;;;5.15;100.00
74125;BME280;62475;52.192;5.396;2022-12-05T15:04:41;102036.88;;;5.14;100.00
74125;BME280;62475;52.192;5.396;2022-12-05T15:09:43;102038.63;;;5.08;100.00
74125;BME280;62475;52.192;5.396;2022-12-05T15:12:24;102035.28;;;5.06;100.00
74125;BME280;62475;52.192;5.396;2022-12-05T15:15:06;102048.38;;;5.16;100.00